»·PEaware :: AAL2321 KSAN-KBUR

AAL2321 :: KSAN-KBUR

FLIGHT INFORMATION

Flight Status: Arrived
Operator:
American Airlines
More flights by this operator :: More flights under this callsign
Pilot: Alfonso ucha (14209)
Aircraft: BOEING 737-800
(B738)
More flights by this aircraft type
Origin: KSAN San Diego Intl-Lindbergh
United States
Destination: KBUR Bob Hope-Burbank
United States
More flights between these airports :: More routes between these airports
Route: +PEBLE6 SLI V23 LAX LAX316 SILEX
File this flight plan on PilotEdge
Remarks:
Altitude:
(Current/Filed)
24,000ft
Speed:
(Current/Filed)
400kts
Departed: 06-Jun-17 11:06 AM
Arrived: 06-Jun-17 11:40 AM
Distance/Time
Traveled:
106nm/0:34
Distance/Time
To Go:
Arrived

Flight Plot

Page will automatically refresh every two minutes.


Map Options




Map Legend


Flown Route
Filed Route
Departure Airport
Arrival Airport
Navaid (VOR, NDB)
Fix

Horizontal Profiles

Position Reports

Time Latitude Longitude Heading Altitude Ground
Speed
06-Jun-17 10:25 32.733210 -117.196877 134 25ft 0kts
06-Jun-17 10:26 32.733210 -117.196877 134 25ft 0kts
06-Jun-17 10:27 32.733210 -117.196877 134 25ft 0kts
06-Jun-17 10:28 32.733210 -117.196877 134 25ft 0kts
06-Jun-17 10:29 32.733210 -117.196877 134 25ft 0kts
06-Jun-17 10:30 32.733210 -117.196877 134 25ft 0kts
06-Jun-17 10:31 32.733210 -117.196877 134 25ft 0kts
06-Jun-17 10:32 32.733210 -117.196877 134 25ft 0kts
06-Jun-17 10:33 32.733210 -117.196877 134 25ft 0kts
06-Jun-17 10:34 32.733210 -117.196877 134 25ft 0kts
06-Jun-17 10:35 32.733210 -117.196877 134 25ft 0kts
06-Jun-17 10:36 32.733210 -117.196877 134 25ft 0kts
06-Jun-17 10:37 32.733210 -117.196877 134 25ft 0kts
06-Jun-17 10:38 32.733210 -117.196877 134 25ft 0kts
06-Jun-17 10:39 32.733210 -117.196877 134 25ft 0kts
06-Jun-17 10:40 32.733210 -117.196877 134 25ft 0kts
06-Jun-17 10:41 32.733210 -117.196877 134 25ft 0kts
06-Jun-17 10:42 32.733210 -117.196877 134 25ft 0kts
06-Jun-17 10:43 32.733210 -117.196877 134 25ft 0kts
06-Jun-17 10:44 32.733210 -117.196877 134 25ft 0kts
06-Jun-17 10:45 32.733210 -117.196877 134 25ft 0kts
06-Jun-17 10:46 32.733210 -117.196877 134 25ft 0kts
06-Jun-17 10:47 32.733210 -117.196877 134 25ft 0kts
06-Jun-17 10:48 32.733210 -117.196877 134 25ft 0kts
06-Jun-17 10:49 32.733210 -117.196877 134 25ft 0kts
06-Jun-17 10:50 32.733210 -117.196877 134 25ft 0kts
06-Jun-17 10:51 32.733210 -117.196877 134 25ft 0kts
06-Jun-17 10:52 32.733210 -117.196877 134 25ft 0kts
06-Jun-17 10:53 32.733210 -117.196877 134 25ft 0kts
06-Jun-17 10:54 32.733210 -117.196877 134 25ft 0kts
06-Jun-17 10:55 32.733210 -117.196877 134 25ft 0kts
06-Jun-17 10:56 32.733452 -117.197746 44 25ft 3kts
06-Jun-17 10:57 32.733432 -117.197769 43 25ft 0kts
06-Jun-17 10:58 32.733432 -117.197769 43 25ft 0kts
06-Jun-17 10:59 32.733459 -117.197738 43 25ft 0kts
06-Jun-17 11:00 32.733500 -117.197692 43 25ft 0kts
06-Jun-17 11:01 32.733540 -117.197647 43 25ft 0kts
06-Jun-17 11:02 32.733580 -117.197601 43 25ft 0kts
06-Jun-17 11:03 32.733621 -117.197556 43 25ft 0kts
06-Jun-17 11:04 32.733798 -117.197356 43 25ft 4kts
06-Jun-17 11:05 32.733485 -117.193592 106 25ft 19kts
06-Jun-17 11:06 32.731449 -117.185276 106 25ft 31kts
06-Jun-17 11:07 32.729526 -117.176658 77 25ft 16kts
06-Jun-17 11:08 32.733873 -117.190988 285 51ft 165kts
06-Jun-17 11:09 32.764755 -117.250694 303 2187ft 260kts
06-Jun-17 11:10 32.802975 -117.316144 303 4029ft 266kts
06-Jun-17 11:11 32.844699 -117.387497 304 5983ft 275kts
06-Jun-17 11:12 32.896436 -117.452194 328 7963ft 285kts
06-Jun-17 11:13 32.962610 -117.503972 310 9927ft 294kts
06-Jun-17 11:14 33.013117 -117.578280 308 10044ft 293kts
06-Jun-17 11:15 33.062563 -117.653084 307 10046ft 292kts
06-Jun-17 11:16 33.111584 -117.727869 306 10001ft 291kts
06-Jun-17 11:17 33.160910 -117.803718 306 9999ft 291kts
06-Jun-17 11:18 33.245268 -117.859388 343 10017ft 446kts
06-Jun-17 11:19 33.361942 -117.901233 342 10359ft 447kts
06-Jun-17 11:20 33.465555 -117.938816 342 9997ft 372kts
06-Jun-17 11:21 33.560039 -117.973195 342 10000ft 375kts
06-Jun-17 11:22 33.633694 -118.042935 311 9481ft 315kts
06-Jun-17 11:23 33.688319 -118.113766 313 7967ft 284kts
06-Jun-17 11:24 33.740479 -118.181269 313 6534ft 284kts
06-Jun-17 11:25 33.789222 -118.244295 312 6000ft 268kts
06-Jun-17 11:26 33.836506 -118.305745 312 5999ft 272kts
06-Jun-17 11:27 33.884172 -118.367900 311 6000ft 274kts
06-Jun-17 11:28 33.926954 -118.423640 316 5996ft 276kts
06-Jun-17 11:29 33.985940 -118.466769 329 5999ft 277kts
06-Jun-17 11:30 34.045445 -118.507041 330 5988ft 242kts
06-Jun-17 11:31 34.094099 -118.539738 330 6003ft 221kts
06-Jun-17 11:32 34.143982 -118.572918 330 5996ft 223kts
06-Jun-17 11:33 34.189501 -118.612624 312 5688ft 219kts
06-Jun-17 11:34 34.214414 -118.664324 250 4380ft 203kts
06-Jun-17 11:35 34.179170 -118.668673 114 4010ft 190kts
06-Jun-17 11:36 34.192508 -118.620158 61 3980ft 197kts
06-Jun-17 11:37 34.200363 -118.572820 92 3017ft 186kts
06-Jun-17 11:38 34.199833 -118.524936 92 2992ft 166kts
06-Jun-17 11:39 34.199314 -118.480971 92 2621ft 145kts
06-Jun-17 11:40 34.198726 -118.433002 92 1861ft 143kts
06-Jun-17 11:41 34.198149 -118.387698 92 1137ft 141kts
06-Jun-17 11:42 34.197668 -118.351496 90 785ft 25kts
06-Jun-17 11:43 34.197258 -118.350173 171 785ft 0kts
06-Jun-17 11:44 34.196774 -118.350105 179 785ft 0kts
06-Jun-17 11:45 34.196774 -118.350105 179 785ft 0kts
06-Jun-17 11:46 34.196774 -118.350105 179 785ft 0kts
06-Jun-17 11:47 34.198189 -118.390800 92 1186ft 141kts
06-Jun-17 11:48 34.197671 -118.351903 88 785ft 25kts
06-Jun-17 11:49 34.197960 -118.365248 92 794ft 141kts

Navigation Log

Ident Type
1. KSAN Airport
2. MELDY Fix
3. PEBLE Fix
4. SLI Navaid
5. POPPR Fix
6. HERMO Fix
7. LAX Navaid
8. SILEX Fix
9. KBUR Airport